Time;durP1;ratioP1;P1;durP2;ratioP2;P2;SDS_P1;SDS_P2;PMS_P1;PMS_P2;Temp;Humidity;BMP_temperature;BMP_pressure;BME280_temperature;BME280_humidity;BME280_pressure;Samples;Min_cycle;Max_cycle;Signal;HPM_P1;HPM_P2
2022/07/30 00:00:17;;;;;;;3.83;3.00;;;17.00;99.90;;;;;;4991386;28;20200;-49
2022/07/30 00:02:44;;;;;;;2.87;2.87;;;17.00;99.90;;;;;;4981249;28;20208;-49
2022/07/30 00:05:11;;;;;;;3.07;2.97;;;17.00;99.90;;;;;;4981021;28;20246;-49
2022/07/30 00:07:38;;;;;;;3.73;3.30;;;17.00;99.90;;;;;;4989982;28;20223;-49
2022/07/30 00:10:06;;;;;;;2.90;2.80;;;17.00;99.90;;;;;;4972451;28;20212;-49
2022/07/30 00:12:34;;;;;;;3.20;3.10;;;17.10;99.90;;;;;;4972618;28;20678;-49
2022/07/30 00:15:01;;;;;;;3.27;3.17;;;17.10;99.90;;;;;;4977963;28;20201;-49
2022/07/30 00:17:28;;;;;;;3.00;2.63;;;17.10;99.90;;;;;;4985575;28;20712;-49
2022/07/30 00:19:55;;;;;;;3.67;3.50;;;17.00;99.90;;;;;;4991839;28;20291;-50
2022/07/30 00:22:22;;;;;;;3.70;3.40;;;17.00;99.90;;;;;;4982557;28;20204;-49
2022/07/30 00:24:49;;;;;;;4.23;3.87;;;17.10;99.90;;;;;;4972645;28;20418;-49
2022/07/30 00:27:16;;;;;;;2.80;2.70;;;17.10;99.90;;;;;;4977939;28;20274;-49
2022/07/30 00:29:44;;;;;;;4.00;3.70;;;17.10;99.90;;;;;;4985080;28;20208;-49
2022/07/30 00:32:11;;;;;;;3.53;3.23;;;17.10;99.90;;;;;;4985383;28;20290;-49
2022/07/30 00:34:38;;;;;;;3.53;3.10;;;17.10;99.90;;;;;;4972476;28;20244;-50
2022/07/30 00:37:05;;;;;;;3.83;3.63;;;17.10;99.90;;;;;;4978715;28;20231;-49
2022/07/30 00:39:32;;;;;;;3.60;3.40;;;17.10;99.90;;;;;;4989844;28;20211;-49
2022/07/30 00:42:01;;;;;;;3.43;3.27;;;17.10;99.90;;;;;;4987930;28;20205;-49
2022/07/30 00:44:28;;;;;;;3.10;3.00;;;17.10;99.90;;;;;;4991218;28;20228;-49
2022/07/30 00:46:57;;;;;;;2.53;2.43;;;17.00;99.90;;;;;;4972381;28;20292;-49
2022/07/30 00:49:24;;;;;;;3.37;3.17;;;16.90;99.90;;;;;;4973936;28;20236;-49
2022/07/30 00:51:51;;;;;;;5.03;2.73;;;16.90;99.90;;;;;;4982212;28;20697;-49
2022/07/30 00:54:19;;;;;;;2.93;2.73;;;16.90;99.90;;;;;;4989881;28;20195;-49
2022/07/30 00:56:47;;;;;;;2.20;2.20;;;16.90;99.90;;;;;;4977963;28;20303;-49
2022/07/30 00:59:15;;;;;;;2.30;2.20;;;17.00;99.90;;;;;;4971827;28;20287;-50
2022/07/30 01:01:42;;;;;;;2.73;2.53;;;17.00;99.90;;;;;;4972442;28;20379;-49
2022/07/30 01:04:11;;;;;;;3.07;2.97;;;17.00;99.90;;;;;;4973579;28;20208;-49
2022/07/30 01:06:39;;;;;;;2.70;2.50;;;17.10;99.90;;;;;;4975691;28;20201;-49
2022/07/30 01:09:06;;;;;;;2.90;2.53;;;17.10;99.90;;;;;;4986716;28;20227;-49
2022/07/30 01:11:37;;;;;;;2.87;2.73;;;17.10;99.90;;;;;;4992785;28;20208;-49
2022/07/30 01:14:05;;;;;;;2.73;2.73;;;17.10;99.90;;;;;;4981630;28;20287;-49
2022/07/30 01:16:32;;;;;;;2.33;2.13;;;17.00;99.90;;;;;;4975490;28;20220;-49
2022/07/30 01:21:54;;;;;;;2.30;2.30;;;17.00;99.90;;;;;;4981814;28;20206;-49
2022/07/30 01:24:28;;;;;;;2.37;2.27;;;17.10;99.90;;;;;;4985499;28;20733;-49
2022/07/30 01:26:57;;;;;;;3.40;3.10;;;17.10;99.90;;;;;;4988828;28;20219;-50
2022/07/30 01:29:27;;;;;;;3.43;3.27;;;17.10;99.90;;;;;;5002437;23;20255;-52
2022/07/30 01:31:58;;;;;;;3.13;2.93;;;17.10;99.90;;;;;;4979697;28;20263;-52
2022/07/30 01:34:28;;;;;;;3.63;3.40;;;17.20;99.90;;;;;;4989775;28;20250;-52
2022/07/30 01:36:57;;;;;;;3.07;2.97;;;17.20;99.90;;;;;;4986776;28;20247;-52
2022/07/30 01:39:26;;;;;;;3.10;3.00;;;17.20;99.90;;;;;;4985203;28;20219;-53
2022/07/30 01:41:56;;;;;;;2.40;2.30;;;17.20;99.90;;;;;;4976892;28;20201;-52
2022/07/30 01:44:25;;;;;;;2.07;1.97;;;17.10;99.90;;;;;;4982433;28;20203;-52
2022/07/30 01:46:54;;;;;;;2.53;2.43;;;17.20;99.90;;;;;;4983789;28;20250;-53
2022/07/30 01:49:23;;;;;;;1.60;1.60;;;17.20;99.90;;;;;;4976131;28;20275;-52
2022/07/30 01:51:51;;;;;;;1.77;1.77;;;17.20;99.90;;;;;;4965927;28;20294;-53
2022/07/30 01:54:20;;;;;;;1.57;1.53;;;17.20;99.90;;;;;;4973618;28;20590;-53
2022/07/30 01:56:49;;;;;;;1.60;1.60;;;17.10;99.90;;;;;;4975198;28;20223;-52
2022/07/30 01:59:20;;;;;;;1.70;1.70;;;17.10;99.90;;;;;;4982101;28;20220;-53
2022/07/30 02:01:47;;;;;;;1.70;1.70;;;17.10;99.90;;;;;;4993586;28;20254;-52
2022/07/30 02:04:15;;;;;;;3.60;1.90;;;17.10;99.90;;;;;;4993930;28;20231;-53
2022/07/30 02:06:46;;;;;;;1.70;1.67;;;17.20;99.90;;;;;;4993731;28;20568;-52
2022/07/30 02:09:19;;;;;;;1.77;1.67;;;17.10;99.90;;;;;;4981659;28;20278;-53
2022/07/30 02:14:44;;;;;;;1.70;1.60;;;17.10;99.90;;;;;;4981223;28;20204;-53
2022/07/30 02:17:17;;;;;;;3.33;2.10;;;17.00;99.90;;;;;;4984855;28;20215;-53
2022/07/30 02:19:45;;;;;;;1.90;1.60;;;17.00;99.90;;;;;;4983791;28;20204;-53
2022/07/30 02:22:15;;;;;;;1.70;1.70;;;17.00;99.90;;;;;;4982242;28;20666;-53
2022/07/30 02:24:43;;;;;;;1.60;1.50;;;17.00;99.90;;;;;;4967631;28;20215;-53
2022/07/30 02:27:15;;;;;;;2.27;2.10;;;17.00;99.90;;;;;;4993266;28;20630;-53
2022/07/30 02:29:45;;;;;;;2.23;2.13;;;17.00;99.90;;;;;;4993436;28;20219;-52
2022/07/30 02:32:17;;;;;;;2.70;2.50;;;17.00;99.90;;;;;;4980957;28;20291;-53
2022/07/30 02:34:46;;;;;;;1.93;1.93;;;17.00;99.90;;;;;;4992755;28;20200;-53
2022/07/30 02:37:15;;;;;;;5.03;2.40;;;17.00;99.90;;;;;;4982943;28;20239;-53
2022/07/30 02:39:43;;;;;;;2.30;2.30;;;17.00;99.90;;;;;;4980955;28;20203;-53
2022/07/30 02:42:13;;;;;;;2.43;2.33;;;17.00;99.90;;;;;;4987700;28;20204;-52
2022/07/30 02:44:44;;;;;;;2.53;2.33;;;16.90;99.90;;;;;;4992796;28;20620;-52
2022/07/30 02:47:15;;;;;;;2.10;2.10;;;16.90;99.90;;;;;;4977542;28;20228;-52
2022/07/30 02:49:44;;;;;;;2.20;1.90;;;16.90;99.90;;;;;;4973434;28;20692;-53
2022/07/30 02:52:13;;;;;;;2.33;2.33;;;16.80;99.90;;;;;;4975915;28;20200;-53
2022/07/30 02:54:42;;;;;;;2.37;2.37;;;16.80;99.90;;;;;;4983517;28;20224;-52
2022/07/30 02:57:10;;;;;;;2.07;2.07;;;16.80;99.90;;;;;;4992580;28;20224;-53
2022/07/30 02:59:39;;;;;;;2.33;2.20;;;16.90;99.90;;;;;;4992735;28;20266;-53
2022/07/30 03:02:11;;;;;;;2.70;2.60;;;16.80;99.90;;;;;;4988877;28;20244;-53
2022/07/30 03:04:39;;;;;;;2.83;2.70;;;16.80;99.90;;;;;;4974227;28;20677;-53
2022/07/30 03:07:07;;;;;;;2.70;2.50;;;16.80;99.90;;;;;;4980174;28;20231;-53
2022/07/30 03:09:36;;;;;;;2.17;2.07;;;16.70;99.90;;;;;;4969570;28;20320;-52
2022/07/30 03:12:04;;;;;;;3.60;2.60;;;16.80;99.90;;;;;;4963139;28;20726;-53
2022/07/30 03:14:31;;;;;;;2.30;2.20;;;16.70;99.90;;;;;;4962394;28;20489;-53
2022/07/30 03:16:59;;;;;;;2.63;2.43;;;16.70;99.90;;;;;;4954304;28;20308;-53
2022/07/30 03:19:31;;;;;;;3.13;2.87;;;16.70;99.90;;;;;;4962044;28;20216;-53
2022/07/30 03:22:01;;;;;;;2.10;2.10;;;16.60;99.90;;;;;;4968644;28;20570;-53
2022/07/30 03:24:30;;;;;;;2.87;2.67;;;16.60;99.90;;;;;;4964125;28;20615;-54
2022/07/30 03:26:59;;;;;;;4.43;3.00;;;16.60;99.90;;;;;;4953192;28;20762;-53
2022/07/30 03:29:27;;;;;;;3.17;2.90;;;16.60;99.90;;;;;;4953014;28;20243;-53
2022/07/30 03:31:55;;;;;;;2.93;2.80;;;16.60;99.90;;;;;;4964792;28;20199;-53
2022/07/30 03:34:23;;;;;;;2.90;2.80;;;16.60;99.90;;;;;;4971630;28;20243;-53
2022/07/30 03:36:52;;;;;;;3.40;3.20;;;16.70;99.90;;;;;;4963633;28;20201;-53
2022/07/30 03:39:20;;;;;;;3.23;3.03;;;16.70;99.90;;;;;;4962699;28;20255;-53
2022/07/30 03:41:48;;;;;;;2.53;2.40;;;16.70;99.90;;;;;;4958162;28;20220;-53
2022/07/30 03:44:16;;;;;;;2.90;2.83;;;16.70;99.90;;;;;;4954584;28;20201;-53
2022/07/30 03:46:44;;;;;;;2.97;2.83;;;16.70;99.90;;;;;;4968865;28;20197;-53
2022/07/30 03:49:12;;;;;;;4.33;3.63;;;16.70;99.90;;;;;;4953007;28;20209;-53
2022/07/30 03:51:40;;;;;;;2.53;2.43;;;16.70;99.90;;;;;;4957839;28;20212;-53
2022/07/30 03:54:10;;;;;;;4.03;3.60;;;16.80;99.90;;;;;;4969404;28;20267;-53
2022/07/30 03:56:37;;;;;;;5.33;3.53;;;16.80;99.90;;;;;;4963137;28;20209;-53
2022/07/30 03:59:05;;;;;;;3.03;2.93;;;16.80;99.90;;;;;;4966539;28;20689;-53
2022/07/30 04:01:32;;;;;;;3.37;3.27;;;16.80;99.90;;;;;;4966407;28;20253;-53
2022/07/30 04:04:05;;;;;;;3.50;3.30;;;16.80;99.90;;;;;;4970321;28;20661;-52
2022/07/30 04:06:35;;;;;;;3.43;3.33;;;16.80;99.90;;;;;;4974058;28;20619;-53
2022/07/30 04:09:02;;;;;;;2.97;2.73;;;16.80;99.90;;;;;;4963788;28;20279;-53
2022/07/30 04:11:30;;;;;;;2.47;2.37;;;16.90;99.90;;;;;;4976414;28;20261;-53
2022/07/30 04:13:57;;;;;;;2.67;2.57;;;16.90;99.90;;;;;;4976684;28;20204;-53
2022/07/30 04:16:30;;;;;;;2.50;2.37;;;17.00;99.90;;;;;;4980324;28;20295;-53
2022/07/30 04:18:59;;;;;;;2.77;2.20;;;17.00;99.90;;;;;;4979530;28;20682;-53
2022/07/30 04:21:28;;;;;;;3.00;2.80;;;17.00;99.90;;;;;;4970431;28;20252;-53
2022/07/30 04:23:56;;;;;;;2.30;2.30;;;17.00;99.90;;;;;;4972784;28;20200;-53
2022/07/30 04:26:23;;;;;;;2.17;2.07;;;16.90;99.90;;;;;;4969250;28;20200;-52
2022/07/30 04:28:52;;;;;;;2.13;2.03;;;16.90;99.90;;;;;;4967363;28;20279;-53
2022/07/30 04:31:19;;;;;;;2.67;2.47;;;16.90;99.90;;;;;;4991665;28;20207;-53
2022/07/30 04:33:46;;;;;;;2.20;1.97;;;16.90;99.90;;;;;;4991628;28;20212;-53
2022/07/30 04:36:13;;;;;;;2.87;2.77;;;16.90;99.90;;;;;;4983095;28;20204;-53
2022/07/30 04:38:43;;;;;;;2.40;2.30;;;16.90;99.90;;;;;;4972240;28;20224;-53
2022/07/30 04:41:10;;;;;;;1.90;1.90;;;17.00;99.90;;;;;;4972867;28;20252;-53
2022/07/30 04:43:37;;;;;;;1.93;1.83;;;17.00;99.90;;;;;;4977318;28;20243;-53
2022/07/30 04:46:05;;;;;;;2.23;2.13;;;17.00;99.90;;;;;;4984476;28;20197;-53
2022/07/30 04:48:32;;;;;;;2.90;2.67;;;17.00;99.90;;;;;;4971870;28;20307;-52
2022/07/30 04:51:01;;;;;;;1.97;1.97;;;17.00;99.90;;;;;;4970038;28;20212;-53
2022/07/30 04:53:29;;;;;;;2.67;2.20;;;17.00;99.90;;;;;;4962022;28;20234;-53
2022/07/30 04:55:59;;;;;;;2.23;2.13;;;17.00;99.90;;;;;;4982256;28;20279;-53
2022/07/30 04:58:27;;;;;;;2.50;2.40;;;17.00;99.90;;;;;;4979329;28;20224;-53
2022/07/30 05:00:57;;;;;;;2.67;2.50;;;17.00;99.90;;;;;;4981957;28;20577;-53
2022/07/30 05:03:27;;;;;;;3.00;2.90;;;17.00;99.90;;;;;;4982866;28;20203;-52
2022/07/30 05:05:55;;;;;;;3.43;2.53;;;17.00;99.90;;;;;;4983257;28;20204;-52
2022/07/30 05:08:23;;;;;;;2.43;2.33;;;17.10;99.90;;;;;;4983000;28;20212;-53
2022/07/30 05:10:50;;;;;;;3.27;2.97;;;17.10;99.90;;;;;;4967830;28;20260;-53
2022/07/30 05:13:17;;;;;;;3.20;3.00;;;17.20;99.90;;;;;;4980844;28;20238;-53
2022/07/30 05:15:44;;;;;;;2.70;2.60;;;17.20;99.90;;;;;;4978000;28;20216;-52
2022/07/30 05:18:11;;;;;;;3.13;2.93;;;17.30;99.90;;;;;;4970087;28;20239;-53
2022/07/30 05:20:40;;;;;;;2.53;2.43;;;17.30;99.90;;;;;;4973518;28;20256;-52
2022/07/30 05:23:08;;;;;;;2.70;2.50;;;17.30;99.90;;;;;;4965641;28;20698;-53
2022/07/30 05:25:35;;;;;;;3.23;2.93;;;17.30;99.90;;;;;;4964348;28;20216;-53
2022/07/30 05:28:02;;;;;;;2.90;2.80;;;17.40;99.90;;;;;;4977422;28;20234;-53
2022/07/30 05:30:29;;;;;;;2.67;2.63;;;17.50;99.90;;;;;;4968547;28;20213;-53
2022/07/30 05:32:57;;;;;;;2.63;2.43;;;17.50;99.90;;;;;;4972058;28;20644;-52
2022/07/30 05:35:24;;;;;;;3.10;2.90;;;17.60;99.90;;;;;;4969330;28;20577;-53
2022/07/30 05:37:53;;;;;;;3.00;2.90;;;17.70;99.90;;;;;;4969969;28;20235;-53
2022/07/30 05:40:20;;;;;;;2.97;2.87;;;17.70;99.90;;;;;;4964390;28;20662;-52
2022/07/30 05:42:48;;;;;;;3.13;3.03;;;17.80;99.90;;;;;;4968507;28;20262;-52
2022/07/30 05:45:15;;;;;;;2.67;2.47;;;17.80;99.90;;;;;;4970831;28;20263;-53
2022/07/30 05:47:42;;;;;;;2.90;2.80;;;17.70;99.90;;;;;;4965967;28;20233;-53
2022/07/30 05:50:11;;;;;;;3.00;2.40;;;17.70;99.90;;;;;;4965081;28;20910;-53
2022/07/30 05:52:38;;;;;;;2.73;2.53;;;17.70;99.90;;;;;;4965309;28;20225;-53
2022/07/30 05:55:08;;;;;;;2.70;2.50;;;17.80;99.90;;;;;;4967182;28;20231;-53
2022/07/30 05:57:36;;;;;;;2.97;2.77;;;17.90;99.90;;;;;;4964716;28;20224;-53
2022/07/30 06:00:04;;;;;;;3.23;3.10;;;18.00;99.90;;;;;;4966210;28;20224;-53
2022/07/30 06:02:31;;;;;;;3.07;2.97;;;18.20;99.90;;;;;;4971246;28;20345;-52
2022/07/30 06:04:58;;;;;;;3.00;2.90;;;18.70;99.90;;;;;;4969076;28;20306;-53
2022/07/30 06:07:25;;;;;;;3.07;2.83;;;19.00;99.90;;;;;;4957439;28;20205;-53
2022/07/30 06:09:53;;;;;;;2.60;2.43;;;19.20;99.90;;;;;;4969401;28;20574;-52
2022/07/30 06:12:21;;;;;;;3.03;2.83;;;19.40;99.90;;;;;;4972872;28;20609;-53
2022/07/30 06:14:48;;;;;;;2.40;2.30;;;19.50;99.90;;;;;;4972920;28;20205;-53
2022/07/30 06:17:15;;;;;;;3.20;2.60;;;19.40;99.90;;;;;;4970800;28;20224;-53
2022/07/30 06:19:42;;;;;;;2.00;2.00;;;19.40;99.90;;;;;;4970471;28;20221;-53
2022/07/30 06:22:09;;;;;;;3.50;2.37;;;19.40;99.90;;;;;;4955574;28;20205;-52
2022/07/30 06:24:36;;;;;;;3.00;2.80;;;19.50;99.90;;;;;;4955816;28;20252;-52
2022/07/30 06:27:03;;;;;;;2.13;2.00;;;19.80;99.90;;;;;;4961571;28;20201;-52
2022/07/30 06:29:32;;;;;;;2.63;2.53;;;20.00;99.90;;;;;;4964628;28;20599;-52
2022/07/30 06:31:59;;;;;;;1.77;1.77;;;20.00;99.90;;;;;;4961730;28;20247;-53
2022/07/30 06:34:26;;;;;;;2.73;2.10;;;20.10;99.90;;;;;;4961352;28;20201;-53
2022/07/30 06:36:53;;;;;;;1.90;1.80;;;20.30;99.90;;;;;;4970353;28;20320;-53
2022/07/30 06:39:20;;;;;;;2.20;2.10;;;20.60;99.90;;;;;;4957398;28;20218;-53
2022/07/30 06:41:47;;;;;;;1.93;1.70;;;21.40;99.90;;;;;;4954545;28;20212;-52
2022/07/30 06:44:14;;;;;;;1.50;1.50;;;21.80;99.90;;;;;;4963307;28;20205;-52
2022/07/30 06:46:43;;;;;;;2.10;1.30;;;22.20;99.90;;;;;;4954335;28;20701;-52
2022/07/30 06:49:10;;;;;;;1.63;1.53;;;22.40;99.90;;;;;;4954079;28;20212;-53
2022/07/30 06:51:37;;;;;;;2.43;1.30;;;22.40;99.90;;;;;;4966156;28;20618;-53
2022/07/30 06:54:04;;;;;;;1.97;1.97;;;22.30;99.90;;;;;;4968542;28;20201;-53
2022/07/30 06:56:31;;;;;;;2.07;1.93;;;22.00;99.90;;;;;;4954039;28;20723;-52
2022/07/30 06:58:58;;;;;;;1.80;1.70;;;22.10;99.90;;;;;;4953781;28;20228;-53
2022/07/30 07:01:25;;;;;;;1.70;1.60;;;22.10;99.90;;;;;;4958451;28;20205;-53
2022/07/30 07:03:53;;;;;;;3.53;1.83;;;22.30;99.90;;;;;;4953874;28;20201;-52
2022/07/30 07:06:20;;;;;;;1.77;1.67;;;22.10;99.90;;;;;;4955309;28;20761;-53
2022/07/30 07:08:47;;;;;;;2.07;1.97;;;21.90;99.90;;;;;;4968666;28;20217;-53
2022/07/30 07:11:14;;;;;;;1.97;1.83;;;21.80;99.90;;;;;;4962024;28;20196;-53
2022/07/30 07:13:45;;;;;;;1.70;1.70;;;21.50;99.90;;;;;;4966831;28;20204;-53
2022/07/30 07:16:13;;;;;;;2.17;2.17;;;21.30;99.90;;;;;;4977825;28;20200;-53
2022/07/30 07:18:40;;;;;;;2.17;2.03;;;21.00;99.90;;;;;;4977978;28;20689;-53
2022/07/30 07:21:09;;;;;;;6.93;2.40;;;20.90;99.90;;;;;;4980348;28;20625;-53
2022/07/30 07:23:36;;;;;;;3.80;2.30;;;20.80;99.90;;;;;;4978164;28;20223;-53
2022/07/30 07:26:03;;;;;;;2.10;2.10;;;20.80;99.90;;;;;;4972415;28;20208;-53
2022/07/30 07:28:30;;;;;;;2.53;2.43;;;20.80;99.90;;;;;;4975148;28;20709;-53
2022/07/30 07:30:57;;;;;;;2.63;2.43;;;20.80;99.90;;;;;;4963460;28;20249;-53
2022/07/30 07:33:24;;;;;;;2.37;2.37;;;21.50;99.90;;;;;;4966383;28;20200;-52
2022/07/30 07:35:53;;;;;;;2.33;2.23;;;22.90;99.90;;;;;;4979834;28;20232;-53
2022/07/30 07:38:21;;;;;;;2.00;2.00;;;24.20;99.90;;;;;;4969630;28;20258;-53
2022/07/30 07:40:48;;;;;;;1.80;1.80;;;24.70;99.90;;;;;;4970278;28;20200;-53
2022/07/30 07:43:16;;;;;;;1.93;1.67;;;25.80;99.90;;;;;;4979007;28;20544;-53
2022/07/30 07:45:44;;;;;;;2.50;2.37;;;26.50;99.90;;;;;;4982300;28;20701;-53
2022/07/30 07:48:11;;;;;;;2.30;2.13;;;27.30;99.90;;;;;;4986857;28;20215;-53
2022/07/30 07:50:38;;;;;;;1.87;1.77;;;26.90;99.90;;;;;;4984190;28;20204;-53
2022/07/30 07:53:06;;;;;;;3.55;3.35;;;26.00;99.90;;;;;;4977077;28;20200;-53
2022/07/30 07:55:34;;;;;;;1.90;1.80;;;26.40;99.90;;;;;;4976315;28;20601;-53
2022/07/30 07:58:01;;;;;;;1.95;1.70;;;27.00;99.90;;;;;;4968284;28;20232;-53
2022/07/30 08:00:29;;;;;;;2.67;2.30;;;27.50;99.90;;;;;;4966008;28;20216;-53
2022/07/30 08:02:56;;;;;;;2.33;2.10;;;28.00;99.90;;;;;;4966067;28;20701;-53
2022/07/30 08:05:23;;;;;;;2.45;2.17;;;28.30;99.90;;;;;;4971980;28;20197;-53
2022/07/30 08:07:50;;;;;;;1.98;1.85;;;28.80;99.90;;;;;;4953881;29;20387;-53
2022/07/30 08:10:17;;;;;;;2.00;2.00;;;29.00;99.90;;;;;;4971962;28;20251;-53
2022/07/30 08:12:46;;;;;;;2.22;2.13;;;29.40;99.90;;;;;;4983416;28;20200;-53
2022/07/30 08:15:13;;;;;;;1.80;1.80;;;29.50;99.90;;;;;;4994931;28;20270;-53
2022/07/30 08:17:41;;;;;;;2.05;2.05;;;29.90;99.90;;;;;;4995732;28;20251;-53
2022/07/30 08:20:10;;;;;;;1.55;1.38;;;30.00;99.90;;;;;;4995241;28;20223;-53
2022/07/30 08:22:37;;;;;;;2.05;1.95;;;30.20;99.90;;;;;;4995578;28;20210;-53
2022/07/30 08:25:05;;;;;;;2.20;1.65;;;30.10;99.90;;;;;;4995431;28;20677;-53
2022/07/30 08:27:32;;;;;;;2.10;1.92;;;30.20;99.90;;;;;;4984064;28;20195;-55
2022/07/30 08:30:04;;;;;;;1.80;1.70;;;30.40;99.90;;;;;;4975791;28;20235;-53
2022/07/30 08:32:31;;;;;;;2.25;1.98;;;30.30;99.90;;;;;;4975960;28;20203;-53
2022/07/30 08:34:57;;;;;;;1.98;1.88;;;30.00;99.90;;;;;;4976108;28;20208;-53
2022/07/30 08:37:24;;;;;;;1.85;1.75;;;30.10;99.90;;;;;;4976061;28;20204;-53
2022/07/30 08:39:51;;;;;;;1.92;1.85;;;30.10;99.90;;;;;;4975582;28;20279;-53
2022/07/30 08:42:19;;;;;;;2.45;2.35;;;30.30;99.90;;;;;;4981051;28;20250;-53
2022/07/30 08:44:46;;;;;;;2.85;2.13;;;29.90;99.90;;;;;;4986935;28;20200;-53
2022/07/30 08:47:18;;;;;;;2.92;1.60;;;29.70;99.90;;;;;;4995037;28;20212;-53
2022/07/30 08:49:46;;;;;;;1.88;1.83;;;29.80;99.90;;;;;;4995139;28;20231;-53
2022/07/30 08:52:14;;;;;;;3.63;1.75;;;30.30;99.90;;;;;;4992193;28;20701;-53
2022/07/30 08:54:41;;;;;;;2.30;2.15;;;30.20;99.90;;;;;;4975640;28;20231;-53
2022/07/30 08:57:09;;;;;;;1.52;1.42;;;30.60;99.90;;;;;;4974336;28;20212;-53
2022/07/30 08:59:38;;;;;;;2.85;1.92;;;30.90;99.90;;;;;;4978821;28;20233;-55
2022/07/30 09:02:05;;;;;;;2.92;1.52;;;30.60;99.90;;;;;;4986725;28;20669;-53
2022/07/30 09:04:33;;;;;;;1.70;1.70;;;30.40;99.90;;;;;;4994938;28;20294;-53
2022/07/30 09:07:01;;;;;;;1.20;1.20;;;30.80;99.90;;;;;;4994739;28;20246;-53
2022/07/30 09:09:28;;;;;;;1.90;1.80;;;31.30;99.90;;;;;;4994553;28;20216;-53
2022/07/30 09:11:55;;;;;;;1.70;1.70;;;30.70;99.90;;;;;;4994770;28;20682;-53
2022/07/30 09:14:22;;;;;;;2.58;1.85;;;30.80;99.90;;;;;;4983288;28;20200;-54
2022/07/30 09:16:57;;;;;;;1.50;1.50;;;30.50;99.90;;;;;;4979351;28;20197;-54
2022/07/30 09:19:24;;;;;;;1.85;1.80;;;30.70;99.90;;;;;;4990631;28;20229;-53
2022/07/30 09:22:00;;;;;;;1.73;1.73;;;30.90;99.90;;;;;;4994529;28;20219;-53
2022/07/30 09:24:28;;;;;;;2.03;1.92;;;30.90;99.90;;;;;;4994282;28;20708;-54
2022/07/30 09:26:57;;;;;;;2.33;2.30;;;30.60;99.90;;;;;;4993519;28;20287;-54
2022/07/30 09:29:27;;;;;;;2.10;2.10;;;30.70;99.90;;;;;;4994035;28;20329;-53
2022/07/30 09:31:58;;;;;;;1.63;1.63;;;30.10;99.90;;;;;;4983180;28;20247;-53
2022/07/30 09:34:27;;;;;;;2.08;1.90;;;30.60;99.90;;;;;;4991069;28;20602;-53
2022/07/30 09:36:55;;;;;;;2.53;2.33;;;30.70;99.90;;;;;;4994100;28;20231;-54
2022/07/30 09:39:34;;;;;;;1.92;1.92;;;30.40;99.90;;;;;;4993808;28;20764;-53
2022/07/30 09:42:02;;;;;;;1.85;1.85;;;29.60;99.90;;;;;;4993981;28;20752;-53
2022/07/30 09:44:30;;;;;;;2.20;2.08;;;28.80;99.90;;;;;;4993951;28;20255;-55
2022/07/30 09:46:58;;;;;;;2.13;2.00;;;28.20;99.90;;;;;;4987621;28;20196;-54
2022/07/30 09:49:26;;;;;;;2.22;2.13;;;27.60;99.90;;;;;;4968099;28;20286;-55
2022/07/30 09:51:55;;;;;;;2.30;2.20;;;27.60;99.90;;;;;;4982092;28;20674;-55
2022/07/30 09:54:22;;;;;;;1.83;1.83;;;27.80;99.90;;;;;;4973383;28;20228;-54
2022/07/30 09:57:04;;;;;;;2.75;2.55;;;27.40;99.90;;;;;;4986039;28;20274;-53
2022/07/30 09:59:32;;;;;;;2.20;2.10;;;27.50;99.90;;;;;;4993443;28;20294;-54
2022/07/30 10:01:59;;;;;;;2.67;2.47;;;28.00;99.90;;;;;;4986019;28;20204;-53
2022/07/30 10:04:27;;;;;;;2.35;2.33;;;28.50;99.90;;;;;;4969949;28;20228;-53
2022/07/30 10:06:54;;;;;;;2.40;2.20;;;29.20;99.90;;;;;;4982253;28;20556;-53
2022/07/30 10:09:26;;;;;;;2.35;2.03;;;29.70;99.90;;;;;;4989660;28;20231;-53
2022/07/30 10:11:57;;;;;;;2.92;2.17;;;29.90;99.90;;;;;;4984202;28;20195;-53
2022/07/30 10:14:35;;;;;;;6.30;1.90;;;30.50;99.90;;;;;;4962213;28;20263;-53
2022/07/30 10:17:03;;;;;;;2.58;2.47;;;30.60;99.90;;;;;;4965273;28;20662;-55
2022/07/30 10:19:32;;;;;;;2.10;1.90;;;31.10;99.90;;;;;;4973783;28;20279;-55
2022/07/30 10:22:00;;;;;;;4.63;2.15;;;31.50;99.90;;;;;;4978557;28;20641;-53
2022/07/30 10:24:27;;;;;;;2.25;2.10;;;32.20;99.90;;;;;;4984407;28;20211;-55
2022/07/30 10:26:55;;;;;;;2.72;2.53;;;32.50;99.90;;;;;;4965203;28;20740;-56
2022/07/30 10:29:23;;;;;;;2.28;2.13;;;33.00;98.10;;;;;;4975859;28;20223;-53
2022/07/30 10:31:51;;;;;;;1.88;1.85;;;32.10;99.80;;;;;;4961253;28;20200;-55
2022/07/30 10:34:19;;;;;;;2.40;2.30;;;31.20;99.90;;;;;;4979790;28;20266;-53
2022/07/30 10:36:49;;;;;;;2.75;2.22;;;31.20;99.90;;;;;;4979345;28;20756;-53
2022/07/30 10:39:21;;;;;;;1.75;1.73;;;30.90;99.90;;;;;;4977685;28;20582;-53
2022/07/30 10:42:05;;;;;;;1.95;1.85;;;30.80;99.90;;;;;;4976109;28;20211;-53
2022/07/30 10:45:03;;;;;;;2.55;2.35;;;30.30;99.90;;;;;;4975685;28;20204;-53
2022/07/30 10:47:32;;;;;;;2.97;2.78;;;29.70;99.90;;;;;;4973396;28;20658;-52
2022/07/30 10:50:11;;;;;;;2.58;2.38;;;29.20;99.90;;;;;;4972837;28;20204;-55
2022/07/30 10:52:49;;;;;;;3.65;2.53;;;29.30;99.90;;;;;;4971693;28;20216;-55
2022/07/30 10:55:17;;;;;;;2.70;2.35;;;29.30;99.90;;;;;;4977675;28;20201;-55
2022/07/30 10:58:03;;;;;;;1.85;1.75;;;29.70;99.90;;;;;;4974425;28;20672;-55
2022/07/30 11:00:31;;;;;;;3.40;3.10;;;30.20;99.90;;;;;;4984013;28;20247;-54
2022/07/30 11:03:17;;;;;;;2.10;2.03;;;30.20;99.90;;;;;;4987922;28;20204;-55
2022/07/30 11:05:45;;;;;;;2.30;2.05;;;30.40;99.90;;;;;;4974709;28;20239;-53
2022/07/30 11:08:32;;;;;;;2.00;1.90;;;30.50;99.50;;;;;;4970112;28;20271;-55
2022/07/30 11:11:00;;;;;;;2.83;2.25;;;30.20;99.90;;;;;;4973841;28;20252;-55
2022/07/30 11:13:51;;;;;;;2.15;2.05;;;29.10;99.90;;;;;;4980110;28;20307;-55
2022/07/30 11:16:19;;;;;;;2.47;2.10;;;28.70;99.90;;;;;;4967251;28;20208;-53
2022/07/30 11:19:10;;;;;;;2.47;2.28;;;28.30;99.90;;;;;;4973704;28;20235;-53
2022/07/30 11:21:38;;;;;;;2.90;2.80;;;28.10;99.90;;;;;;4972485;28;20640;-53
2022/07/30 11:24:06;;;;;;;2.25;2.15;;;27.50;99.90;;;;;;4982325;28;20211;-55
2022/07/30 11:26:51;;;;;;;3.00;2.60;;;27.30;99.90;;;;;;4973575;28;20203;-55
2022/07/30 11:29:38;;;;;;;2.55;2.40;;;26.80;99.90;;;;;;4977435;28;20232;-52
2022/07/30 11:32:25;;;;;;;2.92;2.72;;;27.00;99.90;;;;;;4970646;28;20288;-53
2022/07/30 11:34:53;;;;;;;2.90;2.80;;;26.90;99.90;;;;;;4968742;28;20292;-53
2022/07/30 11:37:20;;;;;;;3.20;3.05;;;26.80;99.90;;;;;;4988191;28;20254;-53
2022/07/30 11:40:06;;;;;;;2.38;2.28;;;26.80;99.90;;;;;;4987230;28;20578;-53
2022/07/30 11:42:34;;;;;;;2.38;2.38;;;27.00;99.90;;;;;;4979431;28;20282;-55
2022/07/30 11:45:28;;;;;;;2.83;2.50;;;27.00;99.90;;;;;;4985688;28;20246;-55
2022/07/30 11:47:58;;;;;;;2.22;2.22;;;27.10;99.90;;;;;;4982376;28;20243;-55
2022/07/30 11:50:27;;;;;;;2.28;2.22;;;26.90;99.90;;;;;;4961447;28;20201;-53
2022/07/30 11:52:55;;;;;;;2.80;2.70;;;26.60;99.90;;;;;;4953191;29;20671;-52
2022/07/30 11:55:24;;;;;;;2.65;2.22;;;26.00;99.90;;;;;;4953234;29;20209;-53
2022/07/30 11:57:51;;;;;;;2.50;2.40;;;25.90;99.90;;;;;;4952981;29;20229;-52
2022/07/30 12:00:18;;;;;;;1.85;1.83;;;25.90;99.90;;;;;;4961607;28;20753;-52
2022/07/30 12:02:48;;;;;;;4.30;2.50;;;25.90;99.90;;;;;;4972239;28;20627;-52
2022/07/30 12:05:15;;;;;;;3.25;2.05;;;25.80;99.90;;;;;;4967685;28;20284;-52
2022/07/30 12:07:42;;;;;;;2.67;2.28;;;26.00;99.90;;;;;;4972266;28;20288;-53
2022/07/30 12:10:17;;;;;;;2.50;2.30;;;26.10;99.90;;;;;;4972003;28;20200;-53
2022/07/30 12:12:44;;;;;;;3.10;2.45;;;26.30;99.90;;;;;;4972281;28;20216;-54
2022/07/30 12:15:29;;;;;;;2.33;2.22;;;26.30;99.90;;;;;;4972303;28;20270;-55
2022/07/30 12:17:57;;;;;;;2.35;2.17;;;26.40;99.90;;;;;;4972327;28;20220;-53
2022/07/30 12:20:24;;;;;;;2.67;2.38;;;26.40;99.90;;;;;;4972252;28;20653;-53
2022/07/30 12:22:51;;;;;;;1.73;1.73;;;26.20;99.90;;;;;;4969936;28;20212;-55
2022/07/30 12:25:19;;;;;;;2.05;2.05;;;25.90;99.90;;;;;;4974255;28;20201;-53
2022/07/30 12:27:47;;;;;;;3.20;2.90;;;25.90;99.90;;;;;;4990298;28;20231;-53
2022/07/30 12:30:16;;;;;;;2.38;2.28;;;25.80;99.90;;;;;;4979623;28;20263;-55
2022/07/30 12:32:43;;;;;;;3.72;2.33;;;26.00;99.90;;;;;;4973655;28;20565;-52
2022/07/30 12:35:12;;;;;;;2.75;2.65;;;26.00;99.90;;;;;;4984831;28;20204;-52
2022/07/30 12:37:39;;;;;;;2.25;2.15;;;25.80;99.90;;;;;;4991533;28;20250;-52
2022/07/30 12:40:11;;;;;;;2.53;2.28;;;25.70;99.90;;;;;;4975686;28;20205;-53
2022/07/30 12:42:50;;;;;;;2.35;2.25;;;25.80;99.90;;;;;;4979213;28;20272;-52
2022/07/30 12:45:27;;;;;;;2.28;2.10;;;25.90;99.90;;;;;;4983458;28;20196;-52
2022/07/30 12:47:54;;;;;;;3.28;3.10;;;25.90;99.90;;;;;;4991447;28;20705;-52
2022/07/30 12:50:22;;;;;;;2.35;2.25;;;25.70;99.90;;;;;;4991118;28;20258;-55
2022/07/30 12:52:51;;;;;;;2.45;2.35;;;25.60;99.90;;;;;;4970269;28;20356;-52
2022/07/30 12:55:19;;;;;;;3.05;2.35;;;25.60;99.90;;;;;;4974844;28;20237;-54
2022/07/30 12:57:54;;;;;;;2.85;2.70;;;25.70;99.90;;;;;;4976843;28;20728;-53
2022/07/30 13:00:22;;;;;;;2.80;2.60;;;26.00;99.90;;;;;;4974578;28;20270;-53
2022/07/30 13:02:49;;;;;;;3.30;3.22;;;26.40;99.90;;;;;;4956133;29;20676;-53